Terminal Aerodrome Forecast
Issued by NWS Portland, OR

Home | Current Version | Previous Version | Text Only | Print | Product List | Glossary On
Versions: 1 2 3 4 5 6 7 8 9 10 11 12 13 14 15
000
FTUS46 KPQR 232338
TAFEUG
TAF
KEUG 232338Z 2400/2424 19012G20KT 5SM -RA BR BKN025 OVC035
     FM240800 19010KT 4SM RA BR BKN015 OVC025
     FM241500 22011KT P6SM -SHRA BKN025 OVC045
     FM241900 22010KT P6SM -SHRA SCT025 BKN040 BKN060=

USA.gov is the U.S. government's official web portal to all federal, state and local government web resources and services.